Waynesville, Ohio
Current Conditions -  °F | °C
As of 7:53 AM on Saturday 25 Oct 2014 (Local Time) from KMGY Reporting Station
Haze Haze  
Wind Chill: 47°   Ceiling: 6000
Heat Index: 49°   Visibility: 6mi
Dew Point: 47°   Wind: 6mph
Humidity: 93%   Direction: 190°S
Pressure: 29.97"   Gusts: NA
Location:  39.53°N, 84.09°W
Report Text: KMGY 251153Z AUTO 19005KT 6SM BR OVC060 09/08 A2997 RMK AO2 SLP150 T00940083 10100 20072 58006
Loading
Personal Weather Stations






























Interactive Weather Map New forecast layout! Learn more

10-Day Weather Forecast

Advertisements
Track Severe Weather on mobile